createdAt,value
2023-04-27T00:00:32.828Z,2.13
2023-04-27T00:01:32.806Z,2.13
2023-04-27T00:02:32.889Z,2.15
2023-04-27T00:03:33.185Z,2.15
2023-04-27T00:04:33.093Z,2.18
2023-04-27T00:05:33.009Z,2.06
2023-04-27T00:06:32.876Z,2.12
2023-04-27T00:07:32.872Z,2.08
2023-04-27T00:08:32.894Z,2.11
2023-04-27T00:09:32.881Z,2.12
2023-04-27T00:10:32.937Z,2.13
2023-04-27T00:11:32.938Z,2.09
2023-04-27T00:12:32.954Z,2.08
2023-04-27T00:13:32.959Z,2.05
2023-04-27T00:14:32.986Z,2.09
2023-04-27T00:15:33.003Z,2.09
2023-04-27T00:16:33.070Z,2.05
2023-04-27T00:17:33.063Z,2.05
2023-04-27T00:18:33.064Z,2.05
2023-04-27T00:19:33.062Z,2.01
2023-04-27T00:20:33.473Z,2.05
2023-04-27T00:21:33.068Z,2.07
2023-04-27T00:22:33.091Z,2.05
2023-04-27T00:23:33.126Z,2.09
2023-04-27T00:24:33.133Z,2.04
2023-04-27T00:25:33.140Z,2.07
2023-04-27T00:26:33.151Z,2.05
2023-04-27T00:27:33.182Z,2.01
2023-04-27T00:28:33.198Z,2.05
2023-04-27T00:29:33.200Z,2.06
2023-04-27T00:30:33.486Z,2.06
2023-04-27T00:31:33.287Z,1.98
2023-04-27T00:32:33.278Z,2.01
2023-04-27T00:33:33.268Z,2.02
2023-04-27T00:34:33.272Z,2.05
2023-04-27T00:35:33.454Z,2.03
2023-04-27T00:36:33.301Z,2.04
2023-04-27T00:37:33.312Z,2.01
2023-04-27T00:38:33.331Z,2.03
2023-04-27T00:39:33.384Z,2.01
2023-04-27T00:40:33.461Z,2.01
2023-04-27T00:41:33.428Z,2.00
2023-04-27T00:42:33.429Z,1.95
2023-04-27T00:43:33.448Z,1.99
2023-04-27T00:44:33.451Z,2.02
2023-04-27T00:45:33.541Z,2.03
2023-04-27T00:46:33.496Z,1.96
2023-04-27T00:47:33.539Z,1.97
2023-04-27T00:48:33.519Z,1.95
2023-04-27T00:49:33.552Z,1.92
2023-04-27T00:50:33.585Z,1.92
2023-04-27T00:51:33.596Z,1.89
2023-04-27T00:52:33.614Z,1.95
2023-04-27T00:53:33.645Z,1.90
2023-04-27T00:54:33.652Z,1.92
2023-04-27T00:55:33.679Z,1.89
2023-04-27T00:56:33.730Z,1.91
2023-04-27T00:57:33.760Z,1.86
2023-04-27T00:58:33.717Z,1.93
2023-04-27T00:59:33.719Z,1.93
2023-04-27T01:00:33.792Z,1.94
2023-04-27T01:01:33.836Z,1.89
2023-04-27T01:02:33.907Z,1.88
2023-04-27T01:03:33.948Z,1.83
2023-04-27T01:04:33.996Z,1.86
2023-04-27T01:05:33.863Z,1.92
2023-04-27T01:06:33.864Z,1.84
2023-04-27T01:07:33.905Z,1.88
2023-04-27T01:08:33.922Z,1.92
2023-04-27T01:09:33.937Z,1.87
2023-04-27T01:10:33.948Z,1.88
2023-04-27T01:11:33.979Z,1.87
2023-04-27T01:12:33.998Z,1.86
2023-04-27T01:13:34.055Z,1.83
2023-04-27T01:14:34.074Z,1.88
2023-04-27T01:15:34.063Z,1.83
2023-04-27T01:16:34.103Z,1.85
2023-04-27T01:17:34.192Z,1.83
2023-04-27T01:18:34.080Z,1.85
2023-04-27T01:19:34.132Z,1.86
2023-04-27T01:20:34.151Z,1.84
2023-04-27T01:21:34.161Z,1.80
2023-04-27T01:22:34.989Z,1.81
2023-04-27T01:23:34.207Z,1.83
2023-04-27T01:24:34.262Z,1.81
2023-04-27T01:25:34.233Z,1.80
2023-04-27T01:26:34.250Z,1.85
2023-04-27T01:27:34.310Z,1.78
2023-04-27T01:28:34.314Z,1.81
2023-04-27T01:29:34.342Z,1.79
2023-04-27T01:30:34.333Z,1.83
2023-04-27T01:31:34.404Z,1.79
2023-04-27T01:32:34.426Z,1.79
2023-04-27T01:33:34.455Z,1.79
2023-04-27T01:34:34.416Z,1.81
2023-04-27T01:35:34.472Z,1.77
2023-04-27T01:36:34.472Z,1.76
2023-04-27T01:37:34.483Z,1.77
2023-04-27T01:38:34.500Z,1.79
2023-04-27T01:39:34.548Z,1.73
2023-04-27T01:40:34.600Z,1.79
2023-04-27T01:41:34.593Z,1.71
2023-04-27T01:42:34.627Z,1.78
2023-04-27T01:43:34.620Z,1.77
2023-04-27T01:44:34.684Z,1.74
2023-04-27T01:45:34.725Z,1.71
2023-04-27T01:46:34.802Z,1.73
2023-04-27T01:47:34.752Z,1.77
2023-04-27T01:48:34.788Z,1.75
2023-04-27T01:49:34.784Z,1.75
2023-04-27T01:50:34.825Z,1.77
2023-04-27T01:51:34.851Z,1.74
2023-04-27T01:52:34.860Z,1.72
2023-04-27T01:53:34.868Z,1.71
2023-04-27T01:54:34.916Z,1.71
2023-04-27T01:55:34.958Z,1.71
2023-04-27T01:56:34.939Z,1.69
2023-04-27T01:57:35.020Z,1.72
2023-04-27T01:58:35.032Z,1.66
2023-04-27T01:59:35.011Z,1.72
2023-04-27T02:00:35.083Z,1.67
2023-04-27T02:01:35.177Z,1.68
2023-04-27T02:02:35.195Z,1.68
2023-04-27T02:03:35.338Z,1.65
2023-04-27T02:04:35.323Z,1.66
2023-04-27T02:05:35.243Z,1.66
2023-04-27T02:06:35.211Z,1.62
2023-04-27T02:07:35.261Z,1.63
2023-04-27T02:08:35.268Z,1.69
2023-04-27T02:09:35.276Z,1.66
2023-04-27T02:10:35.311Z,1.70
2023-04-27T02:11:35.330Z,1.71
2023-04-27T02:12:35.359Z,1.67
2023-04-27T02:13:35.394Z,1.66
2023-04-27T02:14:35.417Z,1.67
2023-04-27T02:15:35.424Z,1.67
2023-04-27T02:16:35.575Z,1.64
2023-04-27T02:17:35.494Z,1.65
2023-04-27T02:18:36.025Z,1.66
2023-04-27T02:19:35.534Z,1.64
2023-04-27T02:20:35.547Z,1.61
2023-04-27T02:21:35.582Z,1.67
2023-04-27T02:22:35.592Z,1.64
2023-04-27T02:23:35.662Z,1.62
2023-04-27T02:24:35.680Z,1.64
2023-04-27T02:25:35.679Z,1.65
2023-04-27T02:26:35.726Z,1.63
2023-04-27T02:27:35.717Z,1.63
2023-04-27T02:28:35.757Z,1.61
2023-04-27T02:29:35.790Z,1.62
2023-04-27T02:30:35.838Z,1.61
2023-04-27T02:31:36.520Z,1.62
2023-04-27T02:32:35.929Z,1.63
2023-04-27T02:33:35.887Z,1.60
2023-04-27T02:34:35.922Z,1.58
2023-04-27T02:35:35.937Z,1.63
2023-04-27T02:36:36.015Z,1.64
2023-04-27T02:37:36.018Z,1.57
2023-04-27T02:38:36.012Z,1.60
2023-04-27T02:39:36.063Z,1.60
2023-04-27T02:40:36.096Z,1.60
2023-04-27T02:41:36.108Z,1.62
2023-04-27T02:42:36.148Z,1.59
2023-04-27T02:43:36.137Z,1.56
2023-04-27T02:44:36.225Z,1.61
2023-04-27T02:45:36.203Z,1.58
2023-04-27T02:46:36.294Z,1.57
2023-04-27T02:47:36.347Z,1.58
2023-04-27T02:48:36.312Z,1.59
2023-04-27T02:49:38.028Z,1.57
2023-04-27T02:50:36.376Z,1.59
2023-04-27T02:51:36.408Z,1.55
2023-04-27T02:52:36.445Z,1.55
2023-04-27T02:53:36.487Z,1.55
2023-04-27T02:54:36.505Z,1.55
2023-04-27T02:55:36.531Z,1.55
2023-04-27T02:56:36.574Z,1.53
2023-04-27T02:57:36.607Z,1.56
2023-04-27T02:58:36.641Z,1.55
2023-04-27T02:59:36.639Z,1.55
2023-04-27T03:00:36.681Z,1.52
2023-04-27T03:01:36.831Z,1.54
2023-04-27T03:02:36.832Z,1.54
2023-04-27T03:03:36.938Z,1.54
2023-04-27T03:04:36.892Z,1.55
2023-04-27T03:05:36.838Z,1.54
2023-04-27T03:06:36.893Z,1.53
2023-04-27T03:07:36.906Z,1.54
2023-04-27T03:08:36.899Z,1.54
2023-04-27T03:09:36.960Z,1.51
2023-04-27T03:10:36.973Z,1.52
2023-04-27T03:11:37.524Z,1.51
2023-04-27T03:12:37.054Z,1.52
2023-04-27T03:13:37.092Z,1.53
2023-04-27T03:14:37.112Z,1.54
2023-04-27T03:15:37.150Z,1.47
2023-04-27T03:16:37.235Z,1.54
2023-04-27T03:17:37.283Z,1.50
2023-04-27T03:18:37.280Z,1.49
2023-04-27T03:19:37.321Z,1.55
2023-04-27T03:20:37.325Z,1.51
2023-04-27T03:21:37.391Z,1.49
2023-04-27T03:22:37.412Z,1.52
2023-04-27T03:23:37.483Z,1.49
2023-04-27T03:24:37.470Z,1.46
2023-04-27T03:25:37.534Z,1.50
2023-04-27T03:26:37.502Z,1.48
2023-04-27T03:27:37.561Z,1.46
2023-04-27T03:28:37.597Z,1.47
2023-04-27T03:29:37.665Z,1.51
2023-04-27T03:30:37.667Z,1.49
2023-04-27T03:31:37.778Z,1.49
2023-04-27T03:32:37.744Z,1.49
2023-04-27T03:33:37.763Z,1.49
2023-04-27T03:34:37.803Z,1.47
2023-04-27T03:35:37.830Z,1.48
2023-04-27T03:36:37.869Z,1.47
2023-04-27T03:37:37.931Z,1.45
2023-04-27T03:38:37.930Z,1.48
2023-04-27T03:39:37.974Z,1.43
2023-04-27T03:40:38.062Z,1.45
2023-04-27T03:41:38.067Z,1.46
2023-04-27T03:42:38.109Z,1.46
2023-04-27T03:43:38.118Z,1.48
2023-04-27T03:44:38.167Z,1.46
2023-04-27T03:45:38.215Z,1.44
2023-04-27T03:46:38.225Z,1.46
2023-04-27T03:47:38.301Z,1.45
2023-04-27T03:48:38.267Z,1.45
2023-04-27T03:49:38.344Z,1.41
2023-04-27T03:50:38.359Z,1.44
2023-04-27T03:51:38.408Z,1.44
2023-04-27T03:52:38.438Z,1.46
2023-04-27T03:53:38.435Z,1.45
2023-04-27T03:54:38.513Z,1.43
2023-04-27T03:55:38.540Z,1.45
2023-04-27T03:56:38.556Z,1.44
2023-04-27T03:57:38.619Z,1.45
2023-04-27T03:58:38.647Z,1.45
2023-04-27T03:59:38.708Z,1.45
2023-04-27T04:00:38.731Z,1.37
2023-04-27T04:01:38.829Z,1.42
2023-04-27T04:02:38.883Z,1.42
2023-04-27T04:03:38.949Z,1.43
2023-04-27T04:04:39.107Z,1.41
2023-04-27T04:05:38.945Z,1.40
2023-04-27T04:06:38.969Z,1.44
2023-04-27T04:07:39.012Z,1.43
2023-04-27T04:08:39.010Z,1.42
2023-04-27T04:09:39.087Z,1.40
2023-04-27T04:10:39.564Z,1.41
2023-04-27T04:11:39.135Z,1.40
2023-04-27T04:12:39.193Z,1.40
2023-04-27T04:13:39.247Z,1.41
2023-04-27T04:14:39.269Z,1.45
2023-04-27T04:15:39.331Z,1.42
2023-04-27T04:16:39.358Z,1.40
2023-04-27T04:17:39.411Z,1.40
2023-04-27T04:18:39.400Z,1.40
2023-04-27T04:19:39.461Z,1.40
2023-04-27T04:20:39.556Z,1.40
2023-04-27T04:21:39.538Z,1.42
2023-04-27T04:22:39.582Z,1.38
2023-04-27T04:23:39.631Z,1.39
2023-04-27T04:24:39.628Z,1.38
2023-04-27T04:25:39.706Z,1.39
2023-04-27T04:26:39.734Z,1.36
2023-04-27T04:27:39.730Z,1.38
2023-04-27T04:28:39.795Z,1.38
2023-04-27T04:29:39.874Z,1.37
2023-04-27T04:30:39.905Z,1.33
2023-04-27T04:31:39.980Z,1.40
2023-04-27T04:32:39.971Z,1.39
2023-04-27T04:33:40.010Z,1.38
2023-04-27T04:34:40.075Z,1.35
2023-04-27T04:35:40.129Z,1.38
2023-04-27T04:36:40.154Z,1.37
2023-04-27T04:37:40.188Z,1.37
2023-04-27T04:38:40.275Z,1.35
2023-04-27T04:39:40.320Z,1.36
2023-04-27T04:40:40.315Z,1.36
2023-04-27T04:41:40.363Z,1.36
2023-04-27T04:42:40.407Z,1.33
2023-04-27T04:43:40.432Z,1.34
2023-04-27T04:44:40.482Z,1.36
2023-04-27T04:45:40.587Z,1.35
2023-04-27T04:46:40.594Z,1.34
2023-04-27T04:47:40.669Z,1.35
2023-04-27T04:48:40.647Z,1.35
2023-04-27T04:49:40.731Z,1.36
2023-04-27T04:50:40.758Z,1.33
2023-04-27T04:51:40.794Z,1.30
2023-04-27T04:52:40.854Z,1.36
2023-04-27T04:53:40.869Z,1.33
2023-04-27T04:54:40.944Z,1.32
2023-04-27T04:55:41.127Z,1.32
2023-04-27T04:56:41.042Z,1.30
2023-04-27T04:57:41.035Z,1.34
2023-04-27T04:58:41.082Z,1.34
2023-04-27T04:59:41.135Z,1.28
2023-04-27T05:00:41.596Z,1.31
2023-04-27T05:01:41.307Z,1.32
2023-04-27T05:02:41.474Z,1.27
2023-04-27T05:03:41.493Z,1.31
2023-04-27T05:04:41.496Z,1.29
2023-04-27T05:05:41.593Z,1.29
2023-04-27T05:06:41.451Z,1.31
2023-04-27T05:07:41.486Z,1.28
2023-04-27T05:08:41.542Z,1.29
2023-04-27T05:09:41.574Z,1.28
2023-04-27T05:10:42.101Z,1.28
2023-04-27T05:11:41.657Z,1.30
2023-04-27T05:12:41.721Z,1.29
2023-04-27T05:13:41.765Z,1.27
2023-04-27T05:14:41.826Z,1.29
2023-04-27T05:15:41.859Z,1.27
2023-04-27T05:16:41.959Z,1.26
2023-04-27T05:17:41.989Z,1.25
2023-04-27T05:18:41.985Z,1.28
2023-04-27T05:19:42.051Z,1.26
2023-04-27T05:20:42.140Z,1.25
2023-04-27T05:21:42.112Z,1.25
2023-04-27T05:22:42.153Z,1.25
2023-04-27T05:23:42.193Z,1.23
2023-04-27T05:24:42.211Z,1.25
2023-04-27T05:25:42.256Z,1.25
2023-04-27T05:26:42.321Z,1.27
2023-04-27T05:27:42.353Z,1.26
2023-04-27T05:28:42.405Z,1.24
2023-04-27T05:29:42.422Z,1.24
2023-04-27T05:30:42.501Z,1.26
2023-04-27T05:31:42.579Z,1.25
2023-04-27T05:32:42.693Z,1.25
2023-04-27T05:33:42.594Z,1.24
2023-04-27T05:34:42.628Z,1.27
2023-04-27T05:35:43.126Z,1.24
2023-04-27T05:36:42.756Z,1.24
2023-04-27T05:37:42.803Z,1.21
2023-04-27T05:38:42.844Z,1.23
2023-04-27T05:39:42.883Z,1.24
2023-04-27T05:40:42.932Z,1.24
2023-04-27T05:41:43.008Z,1.25
2023-04-27T05:42:43.008Z,1.24
2023-04-27T05:43:43.088Z,1.23
2023-04-27T05:44:43.078Z,1.22
2023-04-27T05:45:43.170Z,1.22
2023-04-27T05:46:43.204Z,1.25
2023-04-27T05:47:43.231Z,1.24
2023-04-27T05:48:43.246Z,1.25
2023-04-27T05:49:43.287Z,1.26
2023-04-27T05:50:43.595Z,1.23
2023-04-27T05:51:43.415Z,1.25
2023-04-27T05:52:43.445Z,1.25
2023-04-27T05:53:43.546Z,1.24
2023-04-27T05:54:43.557Z,1.23
2023-04-27T05:55:43.601Z,1.23
2023-04-27T05:56:43.624Z,1.24
2023-04-27T05:57:43.701Z,1.26
2023-04-27T05:58:43.761Z,1.22
2023-04-27T05:59:43.787Z,1.24
2023-04-27T06:00:44.167Z,1.21
2023-04-27T06:01:43.891Z,1.22
2023-04-27T06:02:44.073Z,1.23
2023-04-27T06:03:44.146Z,1.25
2023-04-27T06:04:44.074Z,1.21
2023-04-27T06:05:44.072Z,1.23
2023-04-27T06:06:44.117Z,1.18
2023-04-27T06:07:44.305Z,1.21
2023-04-27T06:08:44.243Z,1.22
2023-04-27T06:09:44.258Z,1.20
2023-04-27T06:10:44.333Z,1.18
2023-04-27T06:11:44.380Z,1.23
2023-04-27T06:12:45.823Z,1.21
2023-04-27T06:13:44.461Z,1.22
2023-04-27T06:14:44.492Z,1.20
2023-04-27T06:15:44.609Z,1.21
2023-04-27T06:16:44.617Z,1.21
2023-04-27T06:17:44.745Z,1.19
2023-04-27T06:18:44.739Z,1.18
2023-04-27T06:19:44.737Z,1.17
2023-04-27T06:20:45.150Z,1.21
2023-04-27T06:21:45.787Z,1.21
2023-04-27T06:22:44.775Z,1.21
2023-04-27T06:23:44.765Z,1.19
2023-04-27T06:24:44.782Z,1.18
2023-04-27T06:25:44.762Z,1.15
2023-04-27T06:26:44.816Z,1.17
2023-04-27T06:27:44.861Z,1.20
2023-04-27T06:28:44.924Z,1.18
2023-04-27T06:29:44.968Z,1.17
2023-04-27T06:30:45.014Z,1.18
2023-04-27T06:31:45.100Z,1.17
2023-04-27T06:32:45.133Z,1.17
2023-04-27T06:33:45.148Z,1.16
2023-04-27T06:34:45.191Z,1.17
2023-04-27T06:35:47.469Z,1.16
2023-04-27T06:36:45.265Z,1.15
2023-04-27T06:37:45.329Z,1.17
2023-04-27T06:38:45.365Z,1.17
2023-04-27T06:39:46.757Z,1.16
2023-04-27T06:40:45.671Z,1.13
2023-04-27T06:41:45.572Z,1.15
2023-04-27T06:42:45.553Z,1.15
2023-04-27T06:43:45.588Z,1.14
2023-04-27T06:44:45.690Z,1.14
2023-04-27T06:45:45.774Z,1.15
2023-04-27T06:46:45.749Z,1.14
2023-04-27T06:47:45.777Z,1.14
2023-04-27T06:48:45.844Z,1.15
2023-04-27T06:49:46.969Z,1.15
2023-04-27T06:50:46.131Z,1.14
2023-04-27T06:51:45.979Z,1.17
2023-04-27T06:52:46.055Z,1.15
2023-04-27T06:53:46.083Z,1.14
2023-04-27T06:54:46.112Z,1.16
2023-04-27T06:55:48.274Z,1.15
2023-04-27T06:56:46.420Z,1.16
2023-04-27T06:57:46.264Z,1.16
2023-04-27T06:58:46.290Z,1.16
2023-04-27T06:59:46.327Z,1.16
2023-04-27T07:00:46.663Z,1.13
2023-04-27T07:01:46.510Z,1.14
2023-04-27T07:02:46.537Z,1.12
2023-04-27T07:03:46.744Z,1.13
2023-04-27T07:04:46.627Z,1.10
2023-04-27T07:05:46.662Z,1.10
2023-04-27T07:06:46.713Z,1.11
2023-04-27T07:07:46.683Z,1.12
2023-04-27T07:08:46.782Z,1.13
2023-04-27T07:09:46.787Z,1.12
2023-04-27T07:10:46.836Z,1.11
2023-04-27T07:11:46.956Z,1.13
2023-04-27T07:12:46.923Z,1.12
2023-04-27T07:13:46.988Z,1.12
2023-04-27T07:14:47.026Z,1.08
2023-04-27T07:15:47.094Z,1.11
2023-04-27T07:16:47.097Z,1.07
2023-04-27T07:17:47.153Z,1.08
2023-04-27T07:18:47.183Z,1.10
2023-04-27T07:19:47.222Z,1.09
2023-04-27T07:20:47.294Z,1.07
2023-04-27T07:21:47.334Z,1.08
2023-04-27T07:22:47.382Z,1.10
2023-04-27T07:23:47.425Z,1.06
2023-04-27T07:24:47.460Z,1.07
2023-04-27T07:25:47.510Z,1.07
2023-04-27T07:26:47.561Z,1.07
2023-04-27T07:27:47.607Z,1.08
2023-04-27T07:28:47.639Z,1.06
2023-04-27T07:29:47.679Z,1.07
2023-04-27T07:30:47.726Z,1.08
2023-04-27T07:31:48.584Z,1.07
2023-04-27T07:32:47.879Z,1.07
2023-04-27T07:33:47.818Z,1.06
2023-04-27T07:34:53.717Z,1.06
2023-04-27T07:35:48.875Z,1.06
2023-04-27T07:36:48.644Z,1.07
2023-04-27T07:37:47.863Z,1.07
2023-04-27T07:38:47.867Z,1.07
2023-04-27T07:39:47.829Z,1.06
2023-04-27T07:40:47.861Z,1.07
2023-04-27T07:41:47.818Z,1.06
2023-04-27T07:42:47.835Z,1.05
2023-04-27T07:43:47.848Z,1.07
2023-04-27T07:44:47.820Z,1.06
2023-04-27T07:45:48.219Z,1.08
2023-04-27T07:46:47.830Z,1.15
2023-04-27T07:47:47.908Z,1.16
2023-04-27T07:48:47.866Z,1.39
2023-04-27T07:49:47.929Z,1.28
2023-04-27T07:50:47.932Z,1.42
2023-04-27T07:51:48.001Z,1.50
2023-04-27T07:52:47.958Z,1.50
2023-04-27T07:53:47.998Z,1.55
2023-04-27T07:54:47.953Z,0.98
2023-04-27T07:55:47.983Z,0.76
2023-04-27T07:56:48.001Z,0.67
2023-04-27T07:57:48.017Z,0.67
2023-04-27T07:58:48.041Z,0.68
2023-04-27T07:59:48.051Z,0.69
2023-04-27T08:00:48.060Z,0.71
2023-04-27T08:01:48.168Z,0.78
2023-04-27T08:02:48.328Z,0.76
2023-04-27T08:03:48.514Z,0.72
2023-04-27T08:04:48.714Z,0.72
2023-04-27T08:05:48.373Z,0.74
2023-04-27T08:06:48.597Z,0.75
2023-04-27T08:07:48.773Z,0.68
2023-04-27T08:08:48.179Z,0.67
2023-04-27T08:09:48.213Z,0.57
2023-04-27T08:10:48.689Z,0.56
2023-04-27T08:11:48.229Z,0.57
2023-04-27T08:12:48.249Z,0.50
2023-04-27T08:13:48.244Z,0.50
2023-04-27T08:14:48.254Z,0.52
2023-04-27T08:15:48.323Z,0.50
2023-04-27T08:16:48.349Z,0.56
2023-04-27T08:17:48.403Z,0.54
2023-04-27T08:18:48.328Z,0.51
2023-04-27T08:19:48.370Z,0.51
2023-04-27T08:20:48.685Z,0.50
2023-04-27T08:21:48.364Z,0.50
2023-04-27T08:22:48.420Z,0.50
2023-04-27T08:23:48.448Z,0.51
2023-04-27T08:24:48.475Z,0.50
2023-04-27T08:25:48.567Z,0.51
2023-04-27T08:26:48.551Z,0.52
2023-04-27T08:27:48.573Z,0.52
2023-04-27T08:28:48.608Z,0.53
2023-04-27T08:29:49.591Z,0.52
2023-04-27T08:30:48.680Z,0.50
2023-04-27T08:31:48.829Z,0.51
2023-04-27T08:32:48.749Z,0.51
2023-04-27T08:33:48.752Z,0.50
2023-04-27T08:34:48.803Z,0.50
2023-04-27T08:35:49.172Z,0.52
2023-04-27T08:36:48.891Z,0.51
2023-04-27T08:37:48.981Z,0.52
2023-04-27T08:38:48.996Z,0.55
2023-04-27T08:39:49.054Z,0.55
2023-04-27T08:40:49.117Z,0.55
2023-04-27T08:41:49.144Z,0.54
2023-04-27T08:42:49.167Z,0.50
2023-04-27T08:43:49.235Z,0.54
2023-04-27T08:44:49.210Z,0.77
2023-04-27T08:45:49.273Z,1.20
2023-04-27T08:46:49.332Z,1.53
2023-04-27T08:47:49.287Z,1.81
2023-04-27T08:48:49.262Z,1.88
2023-04-27T08:49:49.225Z,2.00
2023-04-27T08:50:49.269Z,2.11
2023-04-27T08:51:49.290Z,2.22
2023-04-27T08:52:49.313Z,2.42
2023-04-27T08:53:49.374Z,2.35
2023-04-27T08:54:49.474Z,2.38
2023-04-27T08:55:49.507Z,2.45
2023-04-27T08:56:49.582Z,2.25
2023-04-27T08:57:49.612Z,1.33
2023-04-27T08:58:49.628Z,0.77
2023-04-27T08:59:49.652Z,0.55
2023-04-27T09:00:50.737Z,0.50
2023-04-27T09:01:49.812Z,0.50
2023-04-27T09:02:49.718Z,0.50
2023-04-27T09:03:49.863Z,0.52
2023-04-27T09:04:49.710Z,0.49
2023-04-27T09:06:02.912Z,0.48
2023-04-27T09:06:50.609Z,0.47
2023-04-27T09:07:49.598Z,0.47
2023-04-27T09:08:49.600Z,0.52
2023-04-27T09:09:49.569Z,0.66
2023-04-27T09:10:49.586Z,0.97
2023-04-27T09:11:49.580Z,1.09
2023-04-27T09:12:49.573Z,1.24
2023-04-27T09:13:49.551Z,1.34
2023-04-27T09:14:49.552Z,1.51
2023-04-27T09:15:49.600Z,1.64
2023-04-27T09:16:49.587Z,1.76
2023-04-27T09:17:49.560Z,1.87
2023-04-27T09:18:49.520Z,2.06
2023-04-27T09:19:49.533Z,2.31
2023-04-27T09:20:49.527Z,2.34
2023-04-27T09:21:49.602Z,2.60
2023-04-27T09:22:49.626Z,2.80
2023-04-27T09:23:49.673Z,2.98
2023-04-27T09:24:49.706Z,3.14
2023-04-27T09:25:49.787Z,3.29
2023-04-27T09:26:49.796Z,3.41
2023-04-27T09:27:49.826Z,3.57
2023-04-27T09:28:49.901Z,4.06
2023-04-27T09:29:49.857Z,4.53
2023-04-27T09:30:49.868Z,4.61
2023-04-27T09:31:49.977Z,4.71
2023-04-27T09:32:49.938Z,5.00
2023-04-27T09:33:49.926Z,5.20
2023-04-27T09:34:49.950Z,5.35
2023-04-27T09:35:49.935Z,5.44
2023-04-27T09:36:49.967Z,5.64
2023-04-27T09:37:49.982Z,5.82
2023-04-27T09:38:49.917Z,5.89
2023-04-27T09:39:49.949Z,6.39
2023-04-27T09:40:49.988Z,6.55
2023-04-27T09:41:50.211Z,6.95
2023-04-27T09:42:50.053Z,7.32
2023-04-27T09:43:50.064Z,7.45
2023-04-27T09:44:50.161Z,7.78
2023-04-27T09:45:50.365Z,7.87
2023-04-27T09:46:50.758Z,7.98
2023-04-27T09:47:50.358Z,8.31
2023-04-27T09:48:50.394Z,8.12
2023-04-27T09:49:50.467Z,8.47
2023-04-27T09:50:50.535Z,8.05
2023-04-27T09:51:50.579Z,7.42
2023-04-27T09:52:50.617Z,6.80
2023-04-27T09:53:50.700Z,6.64
2023-04-27T09:54:50.735Z,3.42
2023-04-27T09:55:51.748Z,2.62
2023-04-27T09:56:50.816Z,3.18
2023-04-27T09:57:50.836Z,3.71
2023-04-27T09:58:50.853Z,3.98
2023-04-27T09:59:50.866Z,4.70
2023-04-27T10:00:50.930Z,5.44
2023-04-27T10:01:51.065Z,5.78
2023-04-27T10:02:53.596Z,6.27
2023-04-27T10:03:51.265Z,7.14
2023-04-27T10:04:51.059Z,7.78
2023-04-27T10:05:51.045Z,8.12
2023-04-27T10:06:51.029Z,8.80
2023-04-27T10:07:51.016Z,9.39
2023-04-27T10:08:51.007Z,10.00
2023-04-27T10:09:50.969Z,10.40
2023-04-27T10:10:50.988Z,10.95
2023-04-27T10:11:50.964Z,11.51
2023-04-27T10:12:50.966Z,11.67
2023-04-27T10:13:51.759Z,12.61
2023-04-27T10:14:50.962Z,13.47
2023-04-27T10:15:50.951Z,13.86
2023-04-27T10:16:50.977Z,14.40
2023-04-27T10:17:51.001Z,14.69
2023-04-27T10:18:50.930Z,15.14
2023-04-27T10:19:52.560Z,16.01
2023-04-27T10:20:50.930Z,16.06
2023-04-27T10:21:50.894Z,16.26
2023-04-27T10:22:50.909Z,16.77
2023-04-27T10:23:50.884Z,17.65
2023-04-27T10:24:50.876Z,18.97
2023-04-27T10:25:50.880Z,19.57
2023-04-27T10:26:50.866Z,19.95
2023-04-27T10:27:50.881Z,20.52
2023-04-27T10:28:50.845Z,21.18
2023-04-27T10:29:50.859Z,21.93
2023-04-27T10:30:50.889Z,22.33
2023-04-27T10:31:50.831Z,23.33
2023-04-27T10:32:50.896Z,23.78
2023-04-27T10:33:50.818Z,24.13
2023-04-27T10:34:50.820Z,24.58
2023-04-27T10:35:50.822Z,24.69
2023-04-27T10:36:50.799Z,24.44
2023-04-27T10:37:50.802Z,25.74
2023-04-27T10:38:50.812Z,24.77
2023-04-27T10:39:51.706Z,24.60
2023-04-27T10:40:50.833Z,24.58
2023-04-27T10:41:50.804Z,23.89
2023-04-27T10:42:50.786Z,21.88
2023-04-27T10:43:50.758Z,20.99
2023-04-27T10:44:50.762Z,20.24
2023-04-27T10:45:50.757Z,18.44
2023-04-27T10:46:50.781Z,18.61
2023-04-27T10:47:50.725Z,18.41
2023-04-27T10:48:50.713Z,18.37
2023-04-27T10:49:50.727Z,19.21
2023-04-27T10:50:50.733Z,16.18
2023-04-27T10:51:50.727Z,4.91
2023-04-27T10:52:50.700Z,2.15
2023-04-27T10:53:50.709Z,1.44
2023-04-27T10:54:50.700Z,1.30
2023-04-27T10:55:50.719Z,1.00
2023-04-27T10:56:50.667Z,0.81
2023-04-27T10:57:50.675Z,0.95
2023-04-27T10:58:50.646Z,0.93
2023-04-27T10:59:50.626Z,1.06
2023-04-27T11:00:50.661Z,1.16
2023-04-27T11:01:50.712Z,1.49
2023-04-27T11:02:50.736Z,1.94
2023-04-27T11:03:50.720Z,2.28
2023-04-27T11:04:50.756Z,2.80
2023-04-27T11:05:50.617Z,2.27
2023-04-27T11:06:50.765Z,2.63
2023-04-27T11:07:50.606Z,3.27
2023-04-27T11:08:50.570Z,3.12
2023-04-27T11:09:50.671Z,3.61
2023-04-27T11:10:50.654Z,3.90
2023-04-27T11:11:50.574Z,4.12
2023-04-27T11:12:50.574Z,4.38
2023-04-27T11:13:50.542Z,4.59
2023-04-27T11:14:50.534Z,3.81
2023-04-27T11:15:50.558Z,3.22
2023-04-27T11:16:50.553Z,3.29
2023-04-27T11:17:50.507Z,3.47
2023-04-27T11:18:50.516Z,3.35
2023-04-27T11:19:50.507Z,3.27
2023-04-27T11:20:50.498Z,3.11
2023-04-27T11:21:50.773Z,2.59
2023-04-27T11:22:50.502Z,2.13
2023-04-27T11:23:50.494Z,2.00
2023-04-27T11:24:50.461Z,2.43
2023-04-27T11:25:50.458Z,2.04
2023-04-27T11:26:50.478Z,1.68
2023-04-27T11:27:50.460Z,1.75
2023-04-27T11:28:50.444Z,1.61
2023-04-27T11:29:50.425Z,1.81
2023-04-27T11:30:50.420Z,1.77
2023-04-27T11:31:50.545Z,1.92
2023-04-27T11:32:50.453Z,1.83
2023-04-27T11:33:50.414Z,1.72
2023-04-27T11:34:50.399Z,2.18
2023-04-27T11:35:50.372Z,2.55
2023-04-27T11:36:50.407Z,2.90
2023-04-27T11:37:50.377Z,3.13
2023-04-27T11:38:50.435Z,3.46
2023-04-27T11:39:50.404Z,3.50
2023-04-27T11:40:50.361Z,3.64
2023-04-27T11:41:50.365Z,3.61
2023-04-27T11:42:50.342Z,3.40
2023-04-27T11:43:50.345Z,3.35
2023-04-27T11:44:50.355Z,3.38
2023-04-27T11:45:50.438Z,3.36
2023-04-27T11:46:50.504Z,3.38
2023-04-27T11:47:50.618Z,3.39
2023-04-27T11:48:50.602Z,3.33
2023-04-27T11:49:50.672Z,3.40
2023-04-27T11:50:50.727Z,3.51
2023-04-27T11:51:51.331Z,3.57
2023-04-27T11:52:50.819Z,3.73
2023-04-27T11:53:50.880Z,3.81
2023-04-27T11:54:51.012Z,3.91
2023-04-27T11:55:51.020Z,3.92
2023-04-27T11:56:51.112Z,3.95
2023-04-27T11:57:51.126Z,4.04
2023-04-27T11:58:51.200Z,4.13
2023-04-27T11:59:51.225Z,4.15
2023-04-27T12:00:51.348Z,4.08
2023-04-27T12:01:51.434Z,4.27
2023-04-27T12:02:51.548Z,4.16
2023-04-27T12:03:51.661Z,4.24
2023-04-27T12:04:51.834Z,4.21
2023-04-27T12:05:51.658Z,4.32
2023-04-27T12:06:51.684Z,4.22
2023-04-27T12:07:51.730Z,4.30
2023-04-27T12:08:51.748Z,4.36
2023-04-27T12:09:51.814Z,4.38
2023-04-27T12:10:51.872Z,4.30
2023-04-27T12:11:52.291Z,4.41
2023-04-27T12:12:51.938Z,4.36
2023-04-27T12:13:52.006Z,4.23
2023-04-27T12:14:52.059Z,4.34
2023-04-27T12:15:52.050Z,4.37
2023-04-27T12:16:52.378Z,4.46
2023-04-27T12:17:52.138Z,4.50
2023-04-27T12:18:52.086Z,4.46
2023-04-27T12:19:52.160Z,4.46
2023-04-27T12:20:52.142Z,4.47
2023-04-27T12:21:52.304Z,4.64
2023-04-27T12:22:52.153Z,4.49
2023-04-27T12:23:52.161Z,4.58
2023-04-27T12:24:52.139Z,4.48
2023-04-27T12:25:52.143Z,4.21
2023-04-27T12:26:52.146Z,4.05
2023-04-27T12:27:52.152Z,3.87
2023-04-27T12:28:52.131Z,3.90
2023-04-27T12:29:52.151Z,3.98
2023-04-27T12:30:52.161Z,4.39
2023-04-27T12:31:52.303Z,5.09
2023-04-27T12:32:52.167Z,5.33
2023-04-27T12:33:52.146Z,5.17
2023-04-27T12:34:52.144Z,5.27
2023-04-27T12:35:52.149Z,5.84
2023-04-27T12:36:52.306Z,6.63
2023-04-27T12:37:52.195Z,7.69
2023-04-27T12:38:52.190Z,7.25
2023-04-27T12:39:52.196Z,7.34
2023-04-27T12:40:52.228Z,7.30
2023-04-27T12:41:52.223Z,7.42
2023-04-27T12:42:52.235Z,7.24
2023-04-27T12:43:52.279Z,7.33
2023-04-27T12:44:52.287Z,7.30
2023-04-27T12:45:52.259Z,7.20
2023-04-27T12:46:52.339Z,7.12
2023-04-27T12:48:52.392Z,7.01
2023-04-27T12:49:52.323Z,7.10
2023-04-27T12:50:52.333Z,6.95
2023-04-27T12:51:52.369Z,6.93
2023-04-27T12:52:52.374Z,6.94
2023-04-27T12:53:52.346Z,6.75
2023-04-27T12:54:52.380Z,6.95
2023-04-27T12:55:52.404Z,6.85
2023-04-27T12:56:52.491Z,6.98
2023-04-27T12:57:52.431Z,6.91
2023-04-27T12:58:52.432Z,6.89
2023-04-27T12:59:52.487Z,6.97
2023-04-27T13:00:59.541Z,6.76
2023-04-27T13:01:52.516Z,6.78
2023-04-27T13:02:52.768Z,6.83
2023-04-27T13:03:52.620Z,6.84
2023-04-27T13:04:52.628Z,6.77
2023-04-27T13:05:52.465Z,6.81
2023-04-27T13:06:52.474Z,6.96
2023-04-27T13:07:52.413Z,6.71
2023-04-27T13:08:52.495Z,6.74
2023-04-27T13:09:52.417Z,6.60
2023-04-27T13:10:52.419Z,6.44
2023-04-27T13:11:52.392Z,6.44
2023-04-27T13:12:52.403Z,6.40
2023-04-27T13:13:52.398Z,6.48
2023-04-27T13:14:52.388Z,6.42
2023-04-27T13:15:52.482Z,6.40
2023-04-27T13:16:52.383Z,6.35
2023-04-27T13:17:52.428Z,6.26
2023-04-27T13:18:52.440Z,6.24